Aérodrome :
LOGIN :

S'inscrire | Disclaimer

   EN    FR    IT 

 










Légende :    VFR   VFR Marginal   IFR   IFR Intensif   IFR Très Intensif
Visi : 
Plafond : 
>= 8 km
>= 3000ft
5 à 8 km
1000 à 3000 ft
1500m à 5 km
500 à 1000 ft
800 à 1500m
200 à 500 ft
< 800m
< 200 ft
Symboles :   Orages  Brouillard  Fortes neiges  Fortes précipitations  Vent > 20 kt
SIGMETs :   Divers  Orages  Givrage  Turbulence  Onde Orograph.  Cendres Volcan.






- Altitude de l'aérodrome : 184 ft
- Code IATA : BRU


EBBR - Bruxelles

DERNIER METAR :
  • 071320Z 24009KT 9999 BKN042 09/06 Q1015 NOSIG

METARs EXPIRÉS :
  • 071250Z 24010KT 9999 BKN042 10/07 Q1015 NOSIG
  • 071220Z 24009KT 9999 BKN042 09/07 Q1015 NOSIG
  • 071150Z 23011KT 9999 BKN042 09/06 Q1015 NOSIG
  • 071120Z 24011KT 9999 BKN042 09/06 Q1014 NOSIG
  • 071050Z 24012KT 9999 BKN044 09/06 Q1015 NOSIG

TAF TAF EBBR
Valide du 07 à 12h jusqu'au 08 à 18h UTC


071110Z 0712/0818 23009KT 9999 FEW018 BKN045
BECMG 0802/0804 BKN011
TEMPO 0805/0810 22018G30KT 4000 RA
BECMG 0810/0812 FEW020
PROB40
TEMPO 0816/0818 22015G25KT 3500 SHRA BKN014CB



MET'MAP, la Météo Aéronautique d'un coup d'oeil ! - Copyright ORBIFLY Décembre 2007 - Disclaimer

ORBIFLY MET'MAP TEAM :

Programmation & Développement : Alexandra Zaïnal
Sur une idée originale de : Baudouin d'Aumeries
Assistance à la programmation : Marc-Olivier Méhu
Soutien technique & logistique : Manuel Goepfert

Contact : metmap@orbifly.com




SOURCES & CREDITS :

   NOAA